Time;durP1;ratioP1;P1;durP2;ratioP2;P2;SDS_P1;SDS_P2;PMS_P1;PMS_P2;Temp;Humidity;BMP_temperature;BMP_pressure;BME280_temperature;BME280_humidity;BME280_pressure;Samples;Min_cycle;Max_cycle;Signal;HPM_P1;HPM_P2
2021/07/25 00:02:22;;;;;;;27.20;18.85;;;20.80;99.90;;;;;;5050903;28;20028;-69
2021/07/25 00:04:48;;;;;;;28.90;20.23;;;20.80;99.90;;;;;;5051768;28;20040;-68
2021/07/25 00:07:14;;;;;;;27.67;17.92;;;20.70;99.90;;;;;;5047151;28;20075;-68
2021/07/25 00:09:40;;;;;;;19.65;16.15;;;20.70;99.90;;;;;;5058926;28;20037;-68
2021/07/25 00:12:06;;;;;;;24.35;18.27;;;20.60;99.90;;;;;;5053484;28;20032;-68
2021/07/25 00:14:32;;;;;;;32.42;19.15;;;20.60;99.90;;;;;;5053381;28;20032;-68
2021/07/25 00:16:58;;;;;;;18.90;15.23;;;20.60;99.90;;;;;;5057977;28;20413;-68
2021/07/25 00:19:23;;;;;;;25.48;16.63;;;20.50;99.90;;;;;;5054153;28;20552;-68
2021/07/25 00:21:49;;;;;;;27.55;16.55;;;20.50;99.90;;;;;;5054399;28;20025;-69
2021/07/25 00:24:18;;;;;;;24.98;16.15;;;20.50;99.90;;;;;;5052067;28;20076;-68
2021/07/25 00:26:48;;;;;;;21.48;16.05;;;20.60;99.90;;;;;;5047296;28;20037;-68
2021/07/25 00:29:15;;;;;;;22.90;15.43;;;20.60;99.90;;;;;;5051209;28;20090;-69
2021/07/25 00:31:40;;;;;;;20.67;15.35;;;20.50;99.90;;;;;;5055081;28;20025;-68
2021/07/25 00:34:06;;;;;;;19.02;14.55;;;20.60;99.90;;;;;;5057849;28;20123;-68
2021/07/25 00:36:32;;;;;;;25.95;16.52;;;20.40;99.90;;;;;;5066048;28;20450;-68
2021/07/25 00:38:57;;;;;;;19.30;14.90;;;20.30;99.90;;;;;;5048544;28;20041;-69
2021/07/25 00:41:23;;;;;;;20.60;15.73;;;20.40;99.90;;;;;;5060441;28;20036;-68
2021/07/25 00:43:49;;;;;;;27.85;16.92;;;20.40;99.90;;;;;;5048505;28;20108;-68
2021/07/25 00:46:16;;;;;;;22.05;17.23;;;20.40;99.90;;;;;;5059648;28;20106;-69
2021/07/25 00:48:44;;;;;;;20.75;16.08;;;20.40;99.90;;;;;;5055015;28;20066;-69
2021/07/25 00:51:10;;;;;;;22.92;17.30;;;20.40;99.90;;;;;;5055878;28;20036;-70
2021/07/25 00:53:38;;;;;;;19.27;16.25;;;20.40;99.90;;;;;;5049799;28;20029;-69
2021/07/25 00:56:08;;;;;;;25.02;17.92;;;20.30;99.90;;;;;;5059449;28;20035;-69
2021/07/25 00:58:39;;;;;;;22.08;16.75;;;20.40;99.90;;;;;;5059219;28;20381;-69
2021/07/25 01:01:07;;;;;;;20.37;15.17;;;20.40;99.90;;;;;;5049000;28;20017;-69
2021/07/25 01:03:57;;;;;;;27.23;16.77;;;20.30;99.90;;;;;;5046801;28;20025;-69
2021/07/25 01:06:46;;;;;;;25.17;17.73;;;20.30;99.90;;;;;;5052163;28;20024;-68
2021/07/25 01:09:30;;;;;;;25.80;19.52;;;20.30;99.90;;;;;;5051095;28;20382;-68
2021/07/25 01:11:58;;;;;;;30.13;21.48;;;20.30;99.90;;;;;;5051936;28;20461;-69
2021/07/25 01:14:30;;;;;;;29.48;21.98;;;20.20;99.90;;;;;;5052989;28;20388;-69
2021/07/25 01:17:28;;;;;;;25.55;19.23;;;20.10;99.90;;;;;;5054927;28;20027;-69
2021/07/25 01:19:55;;;;;;;25.70;19.45;;;20.10;99.90;;;;;;5053484;28;20025;-69
2021/07/25 01:22:21;;;;;;;29.38;20.17;;;20.10;99.90;;;;;;5051785;28;20135;-69
2021/07/25 01:24:47;;;;;;;31.88;23.33;;;20.20;99.90;;;;;;5049012;28;20423;-70
2021/07/25 01:27:28;;;;;;;26.33;20.33;;;20.20;99.90;;;;;;5052504;28;20120;-69
2021/07/25 01:29:56;;;;;;;29.95;21.40;;;20.20;99.90;;;;;;5048238;28;20040;-69
2021/07/25 01:32:23;;;;;;;28.20;21.08;;;20.20;99.90;;;;;;5054332;28;20029;-69
2021/07/25 01:34:49;;;;;;;29.90;21.00;;;20.20;99.90;;;;;;5056226;28;20584;-69
2021/07/25 01:37:15;;;;;;;26.83;21.13;;;20.20;99.90;;;;;;5054940;28;20032;-69
2021/07/25 01:39:42;;;;;;;27.08;20.05;;;20.20;99.90;;;;;;5052121;28;20310;-68
2021/07/25 01:42:07;;;;;;;29.42;22.20;;;20.20;99.90;;;;;;5054028;28;20032;-69
2021/07/25 01:44:33;;;;;;;36.30;23.50;;;20.20;99.90;;;;;;5045615;28;20096;-70
2021/07/25 01:46:59;;;;;;;35.55;22.08;;;20.10;99.90;;;;;;5044321;28;20224;-69
2021/07/25 01:49:24;;;;;;;53.08;27.60;;;20.10;99.90;;;;;;5053988;28;20067;-69
2021/07/25 01:51:50;;;;;;;27.30;18.95;;;20.10;99.90;;;;;;5049189;28;20017;-69
2021/07/25 01:54:16;;;;;;;29.42;19.10;;;20.10;99.90;;;;;;5054015;28;20029;-68
2021/07/25 01:56:41;;;;;;;24.45;18.00;;;20.10;99.90;;;;;;5056376;28;20025;-68
2021/07/25 01:59:07;;;;;;;27.25;19.13;;;20.00;99.90;;;;;;5051444;28;20115;-69
2021/07/25 02:01:32;;;;;;;30.08;20.95;;;20.10;99.90;;;;;;5049711;28;20523;-68
2021/07/25 02:03:58;;;;;;;22.90;16.85;;;20.10;99.90;;;;;;5052451;28;20071;-68
2021/07/25 02:06:24;;;;;;;34.10;18.40;;;20.00;99.90;;;;;;5054206;28;20025;-68
2021/07/25 02:08:49;;;;;;;28.50;18.58;;;19.90;99.90;;;;;;5049350;28;20028;-68
2021/07/25 02:11:15;;;;;;;27.73;19.30;;;20.00;99.90;;;;;;5048029;28;20032;-68
2021/07/25 02:13:40;;;;;;;27.17;19.45;;;20.00;99.90;;;;;;5052397;28;20108;-68
2021/07/25 02:16:06;;;;;;;30.77;18.15;;;20.00;99.90;;;;;;5047704;28;20505;-68
2021/07/25 02:18:32;;;;;;;26.02;19.15;;;20.00;99.90;;;;;;5052943;28;20017;-69
2021/07/25 02:20:57;;;;;;;26.88;18.80;;;20.00;99.90;;;;;;5047706;28;20104;-69
2021/07/25 02:23:23;;;;;;;20.23;16.27;;;20.00;99.90;;;;;;5047324;28;20059;-69
2021/07/25 02:25:49;;;;;;;26.25;17.25;;;20.00;99.90;;;;;;5054334;28;20438;-68
2021/07/25 02:28:14;;;;;;;26.88;16.95;;;20.00;99.90;;;;;;5049725;28;20086;-69
2021/07/25 02:30:40;;;;;;;21.42;17.13;;;20.00;99.90;;;;;;5050106;28;20030;-68
2021/07/25 02:33:06;;;;;;;26.70;18.45;;;19.90;99.90;;;;;;5050576;28;20021;-68
2021/07/25 02:35:32;;;;;;;24.75;17.42;;;20.00;99.90;;;;;;5047408;28;20124;-68
2021/07/25 02:37:58;;;;;;;25.20;17.38;;;19.90;99.90;;;;;;5049158;28;20051;-68
2021/07/25 02:40:24;;;;;;;22.65;17.77;;;19.90;99.90;;;;;;5051894;28;20029;-68
2021/07/25 02:42:50;;;;;;;27.85;17.88;;;20.00;99.90;;;;;;5049450;28;20062;-68
2021/07/25 02:45:16;;;;;;;24.10;16.73;;;19.90;99.90;;;;;;5046075;28;20033;-68
2021/07/25 02:47:41;;;;;;;23.65;16.77;;;19.90;99.90;;;;;;5050759;28;20029;-68
2021/07/25 02:50:08;;;;;;;26.95;17.25;;;19.80;99.90;;;;;;5060405;28;20038;-68
2021/07/25 02:52:33;;;;;;;21.98;15.02;;;19.80;99.90;;;;;;5053735;28;20025;-69
2021/07/25 02:54:59;;;;;;;25.52;16.50;;;19.80;99.90;;;;;;5053195;28;20380;-68
2021/07/25 02:57:25;;;;;;;21.15;15.52;;;19.80;99.90;;;;;;5051566;28;20025;-69
2021/07/25 02:59:51;;;;;;;26.10;17.08;;;19.80;99.90;;;;;;5054234;28;20067;-68
2021/07/25 03:02:17;;;;;;;27.08;17.85;;;19.80;99.90;;;;;;5056622;28;20135;-69
2021/07/25 03:04:43;;;;;;;30.27;16.92;;;19.70;99.90;;;;;;5052083;28;20029;-68
2021/07/25 03:07:08;;;;;;;30.08;18.08;;;19.60;99.90;;;;;;5049245;28;20098;-69
2021/07/25 03:09:34;;;;;;;30.38;18.45;;;19.70;99.90;;;;;;5054559;28;20397;-68
2021/07/25 03:12:00;;;;;;;25.85;16.60;;;19.70;99.90;;;;;;5055694;28;20458;-68
2021/07/25 03:14:25;;;;;;;26.15;17.27;;;19.70;99.90;;;;;;5055742;28;20025;-69
2021/07/25 03:16:51;;;;;;;26.02;16.10;;;19.70;99.90;;;;;;5043201;28;20064;-68
2021/07/25 03:19:17;;;;;;;20.05;16.17;;;19.60;99.90;;;;;;5053309;28;20030;-68
2021/07/25 03:21:43;;;;;;;31.23;19.25;;;19.60;99.90;;;;;;5052685;28;20063;-68
2021/07/25 03:24:08;;;;;;;23.35;15.15;;;19.60;99.90;;;;;;5054568;28;20028;-69
2021/07/25 03:26:34;;;;;;;22.15;15.45;;;19.60;99.90;;;;;;5054994;28;20028;-68
2021/07/25 03:28:59;;;;;;;19.65;14.10;;;19.50;99.90;;;;;;5052108;28;20033;-68
2021/07/25 03:31:25;;;;;;;30.17;14.77;;;19.60;99.90;;;;;;5044283;28;20025;-68
2021/07/25 03:33:51;;;;;;;26.83;14.43;;;19.50;99.90;;;;;;5051177;28;20032;-68
2021/07/25 03:36:16;;;;;;;26.15;16.42;;;19.40;99.90;;;;;;5046301;28;20100;-68
2021/07/25 03:38:42;;;;;;;27.80;14.73;;;19.50;99.90;;;;;;5051817;28;20033;-69
2021/07/25 03:41:07;;;;;;;21.13;14.75;;;19.40;99.90;;;;;;5049870;28;20035;-69
2021/07/25 03:43:33;;;;;;;19.48;14.77;;;19.40;99.90;;;;;;5049300;28;20021;-68
2021/07/25 03:46:00;;;;;;;20.73;16.02;;;19.40;99.90;;;;;;5046353;28;20122;-69
2021/07/25 03:48:27;;;;;;;20.77;15.32;;;19.40;99.90;;;;;;5049427;28;20505;-68
2021/07/25 03:50:53;;;;;;;17.83;13.80;;;19.40;99.90;;;;;;5055068;28;20115;-69
2021/07/25 03:53:19;;;;;;;21.92;14.35;;;19.30;99.90;;;;;;5053824;28;20567;-68
2021/07/25 03:55:46;;;;;;;22.45;14.43;;;19.30;99.90;;;;;;5051667;28;20057;-68
2021/07/25 03:58:11;;;;;;;23.33;15.80;;;19.30;99.90;;;;;;5051164;28;20036;-68
2021/07/25 04:00:37;;;;;;;20.27;15.80;;;19.30;99.90;;;;;;5051691;28;20021;-68
2021/07/25 04:03:03;;;;;;;16.00;13.65;;;19.30;99.90;;;;;;5053747;28;20024;-68
2021/07/25 04:05:29;;;;;;;19.50;14.55;;;19.20;99.90;;;;;;5054965;28;20023;-68
2021/07/25 04:07:54;;;;;;;21.40;15.13;;;19.20;99.90;;;;;;5054229;28;20129;-68
2021/07/25 04:10:20;;;;;;;15.40;13.50;;;19.20;99.90;;;;;;5055702;28;20039;-68
2021/07/25 04:12:46;;;;;;;20.50;14.85;;;19.20;99.90;;;;;;5053007;28;20016;-68
2021/07/25 04:15:12;;;;;;;21.02;15.07;;;19.20;99.90;;;;;;5053634;28;20036;-68
2021/07/25 04:17:38;;;;;;;23.45;15.55;;;19.20;99.90;;;;;;5043393;28;20014;-68
2021/07/25 04:20:04;;;;;;;17.55;13.55;;;19.20;99.90;;;;;;5052276;28;20017;-68
2021/07/25 04:22:34;;;;;;;23.65;16.67;;;19.10;99.90;;;;;;5048757;28;20511;-68
2021/07/25 04:25:00;;;;;;;24.30;17.05;;;19.10;99.90;;;;;;5044960;28;20021;-68
2021/07/25 04:27:27;;;;;;;22.00;16.38;;;19.00;99.90;;;;;;5043892;28;20100;-68
2021/07/25 04:29:54;;;;;;;21.30;15.23;;;19.00;99.90;;;;;;5051198;28;20040;-68
2021/07/25 04:32:20;;;;;;;23.48;16.30;;;19.00;99.90;;;;;;5054375;28;20370;-68
2021/07/25 04:34:46;;;;;;;29.80;15.90;;;19.00;99.90;;;;;;5055572;28;20104;-68
2021/07/25 04:37:22;;;;;;;30.00;18.48;;;19.00;99.90;;;;;;5048120;28;20033;-68
2021/07/25 04:39:49;;;;;;;27.42;19.60;;;19.10;99.90;;;;;;5046837;28;20048;-68
2021/07/25 04:42:17;;;;;;;23.13;16.08;;;19.00;99.90;;;;;;5050394;28;20068;-68
2021/07/25 04:44:49;;;;;;;25.83;16.25;;;18.90;99.90;;;;;;5049518;28;21637;-68
2021/07/25 04:47:19;;;;;;;19.95;15.93;;;19.00;99.90;;;;;;5051145;28;20083;-69
2021/07/25 04:49:57;;;;;;;27.95;17.98;;;19.00;99.90;;;;;;5051253;28;20041;-68
2021/07/25 04:52:25;;;;;;;22.92;16.58;;;18.90;99.90;;;;;;5049516;28;20030;-68
2021/07/25 04:54:54;;;;;;;21.65;15.50;;;18.90;99.90;;;;;;5052903;28;20025;-68
2021/07/25 04:57:25;;;;;;;20.55;15.30;;;18.90;99.90;;;;;;5045393;28;20470;-68
2021/07/25 04:59:54;;;;;;;23.83;17.00;;;18.90;99.90;;;;;;5048741;28;20021;-68
2021/07/25 05:02:23;;;;;;;22.58;16.75;;;19.00;99.90;;;;;;5053206;28;20013;-68
2021/07/25 05:04:49;;;;;;;31.20;18.00;;;19.00;99.90;;;;;;5052046;28;20025;-68
2021/07/25 05:07:15;;;;;;;20.63;15.57;;;19.00;99.90;;;;;;5046110;28;20587;-68
2021/07/25 05:09:42;;;;;;;21.00;14.43;;;18.90;99.90;;;;;;5047613;28;20119;-68
2021/07/25 05:12:37;;;;;;;23.10;15.25;;;19.00;99.90;;;;;;5052477;28;20029;-69
2021/07/25 05:15:25;;;;;;;28.60;15.18;;;19.00;99.90;;;;;;5040010;28;20037;-68
2021/07/25 05:17:54;;;;;;;22.85;14.95;;;19.00;99.90;;;;;;5051278;28;20017;-68
2021/07/25 05:20:29;;;;;;;22.63;15.10;;;19.10;99.90;;;;;;5056293;28;20032;-68
2021/07/25 05:23:16;;;;;;;22.35;14.68;;;19.10;99.90;;;;;;5052060;28;20029;-68
2021/07/25 05:25:48;;;;;;;22.77;15.30;;;19.10;99.90;;;;;;5051770;28;20021;-68
2021/07/25 05:28:14;;;;;;;20.83;13.95;;;19.00;99.90;;;;;;5056641;28;20021;-68
2021/07/25 05:30:43;;;;;;;24.45;13.73;;;19.00;99.90;;;;;;5056828;28;20397;-68
2021/07/25 05:33:10;;;;;;;24.58;16.02;;;19.00;99.90;;;;;;5050434;28;20029;-68
2021/07/25 05:35:36;;;;;;;19.52;14.80;;;19.10;99.90;;;;;;5057025;28;20021;-68
2021/07/25 05:38:03;;;;;;;20.08;12.85;;;19.10;99.90;;;;;;5049684;28;20051;-68
2021/07/25 05:40:28;;;;;;;16.95;12.10;;;19.00;99.90;;;;;;5053528;28;20053;-69
2021/07/25 05:42:54;;;;;;;16.80;12.43;;;19.00;99.90;;;;;;5051353;28;20067;-68
2021/07/25 05:45:20;;;;;;;18.00;13.07;;;19.10;99.90;;;;;;5052683;28;20029;-68
2021/07/25 05:47:45;;;;;;;21.73;13.65;;;19.20;99.90;;;;;;5055283;28;20500;-68
2021/07/25 05:50:11;;;;;;;17.52;12.93;;;19.20;99.90;;;;;;5052677;28;21015;-68
2021/07/25 05:52:50;;;;;;;15.85;12.15;;;19.20;99.90;;;;;;5051922;28;20033;-69
2021/07/25 05:55:20;;;;;;;22.65;13.82;;;19.30;99.90;;;;;;5048639;28;20122;-69
2021/07/25 05:57:46;;;;;;;17.98;11.32;;;19.30;99.90;;;;;;5053339;28;20024;-68
2021/07/25 06:00:13;;;;;;;21.20;12.18;;;19.20;99.90;;;;;;5047278;28;20022;-69
2021/07/25 06:03:02;;;;;;;22.77;12.77;;;19.30;99.90;;;;;;5052929;28;20029;-68
2021/07/25 06:05:30;;;;;;;17.42;11.52;;;19.30;99.90;;;;;;5054286;28;20104;-68
2021/07/25 06:07:58;;;;;;;17.05;10.60;;;19.30;99.90;;;;;;5048177;28;20032;-68
2021/07/25 06:10:27;;;;;;;15.98;11.23;;;19.30;99.90;;;;;;5053783;28;20064;-68
2021/07/25 06:12:56;;;;;;;15.93;9.95;;;19.40;99.90;;;;;;5051827;28;20028;-68
2021/07/25 06:15:22;;;;;;;16.75;11.70;;;19.40;99.90;;;;;;5055974;28;20555;-69
2021/07/25 06:17:48;;;;;;;14.73;11.00;;;19.50;99.90;;;;;;5047574;28;20053;-69
2021/07/25 06:20:13;;;;;;;14.05;9.93;;;19.50;99.90;;;;;;5047388;28;20057;-68
2021/07/25 06:22:45;;;;;;;17.48;10.63;;;19.60;99.90;;;;;;5048137;28;20090;-68
2021/07/25 06:25:12;;;;;;;16.73;9.00;;;19.60;99.90;;;;;;5051580;28;20021;-68
2021/07/25 06:27:39;;;;;;;15.65;9.40;;;19.70;99.90;;;;;;5048419;28;20464;-68
2021/07/25 06:30:06;;;;;;;20.27;9.75;;;19.70;99.90;;;;;;5053487;28;20117;-68
2021/07/25 06:32:51;;;;;;;18.33;9.90;;;19.70;99.90;;;;;;5056858;28;20078;-68
2021/07/25 06:35:16;;;;;;;16.38;10.50;;;19.70;99.90;;;;;;5050404;28;20029;-68
2021/07/25 06:37:42;;;;;;;12.88;8.57;;;19.80;99.90;;;;;;5049082;28;20611;-69
2021/07/25 06:40:08;;;;;;;15.50;9.55;;;19.80;99.90;;;;;;5053529;28;20409;-69
2021/07/25 06:42:34;;;;;;;13.25;9.38;;;20.00;99.90;;;;;;5051881;28;20079;-68
2021/07/25 06:44:59;;;;;;;12.15;8.98;;;19.90;99.90;;;;;;5052168;28;20024;-69
2021/07/25 06:47:25;;;;;;;9.25;7.45;;;19.90;99.90;;;;;;5052244;28;20055;-68
2021/07/25 06:49:51;;;;;;;14.02;8.38;;;19.80;99.90;;;;;;5053646;28;20112;-69
2021/07/25 06:52:16;;;;;;;11.38;8.18;;;19.90;99.90;;;;;;5047560;28;20486;-68
2021/07/25 06:54:42;;;;;;;15.48;8.73;;;19.90;99.90;;;;;;5048814;28;20028;-68
2021/07/25 06:57:08;;;;;;;9.82;7.43;;;20.00;99.90;;;;;;5056939;28;20363;-68
2021/07/25 06:59:33;;;;;;;13.07;8.32;;;20.00;99.90;;;;;;5047597;28;20029;-68
2021/07/25 07:02:00;;;;;;;15.30;8.18;;;20.10;99.90;;;;;;5051550;28;20055;-68
2021/07/25 07:04:25;;;;;;;11.25;7.03;;;20.10;99.90;;;;;;5055187;28;20020;-68
2021/07/25 07:06:51;;;;;;;9.63;7.10;;;20.30;99.90;;;;;;5049652;28;20462;-68
2021/07/25 07:09:17;;;;;;;14.80;7.68;;;20.40;99.90;;;;;;5051299;28;20067;-68
2021/07/25 07:11:42;;;;;;;14.85;7.45;;;20.50;99.90;;;;;;5045803;28;20075;-68
2021/07/25 07:14:08;;;;;;;9.93;7.43;;;20.60;99.90;;;;;;5055419;28;20401;-68
2021/07/25 07:16:34;;;;;;;13.70;7.35;;;20.70;99.90;;;;;;5045637;28;20029;-68
2021/07/25 07:19:00;;;;;;;12.77;8.05;;;20.80;99.90;;;;;;5057029;28;20488;-68
2021/07/25 07:21:25;;;;;;;15.05;6.25;;;20.90;99.90;;;;;;5054472;28;20025;-68
2021/07/25 07:23:51;;;;;;;9.18;6.18;;;20.80;99.90;;;;;;5053971;28;20043;-68
2021/07/25 07:26:17;;;;;;;11.77;6.90;;;20.90;99.90;;;;;;5052744;28;20029;-69
2021/07/25 07:28:42;;;;;;;10.18;5.97;;;21.00;99.90;;;;;;5056566;28;20032;-68
2021/07/25 07:31:08;;;;;;;17.25;6.30;;;21.20;99.90;;;;;;5049454;28;20044;-68
2021/07/25 07:33:33;;;;;;;8.02;6.07;;;21.30;99.90;;;;;;5053865;28;20032;-68
2021/07/25 07:35:59;;;;;;;8.35;5.78;;;21.40;99.90;;;;;;5053322;28;20032;-68
2021/07/25 07:38:25;;;;;;;10.20;6.03;;;21.50;99.90;;;;;;5054790;28;20037;-68
2021/07/25 07:40:50;;;;;;;10.48;6.40;;;21.60;99.90;;;;;;5051592;28;20021;-68
2021/07/25 07:43:18;;;;;;;6.85;5.20;;;21.70;99.90;;;;;;5052276;28;20032;-68
2021/07/25 07:45:44;;;;;;;10.95;5.45;;;21.80;99.90;;;;;;5053183;28;20108;-68
2021/07/25 07:48:10;;;;;;;8.27;5.80;;;21.90;99.90;;;;;;5055784;28;20024;-68
2021/07/25 07:50:36;;;;;;;9.85;4.40;;;22.00;99.90;;;;;;5052327;28;20029;-68
2021/07/25 07:53:02;;;;;;;7.30;5.03;;;22.00;99.90;;;;;;5049613;28;20529;-68
2021/07/25 07:55:28;;;;;;;8.60;4.18;;;22.10;99.90;;;;;;5054894;28;20101;-68
2021/07/25 07:57:54;;;;;;;6.50;4.55;;;22.10;99.90;;;;;;5054454;28;20028;-68
2021/07/25 08:00:20;;;;;;;6.18;4.65;;;22.30;99.90;;;;;;5055782;28;20074;-68
2021/07/25 08:02:46;;;;;;;7.20;4.20;;;22.30;99.90;;;;;;5052218;28;20025;-68
2021/07/25 08:05:12;;;;;;;8.98;4.65;;;22.30;99.90;;;;;;5053443;28;20074;-68
2021/07/25 08:07:38;;;;;;;6.55;4.65;;;22.50;99.90;;;;;;5054166;28;20413;-68
2021/07/25 08:10:06;;;;;;;11.55;5.07;;;22.50;99.90;;;;;;5055603;28;20037;-68
2021/07/25 08:12:31;;;;;;;7.15;4.97;;;22.50;99.90;;;;;;5057149;28;20121;-68
2021/07/25 08:14:57;;;;;;;6.53;4.70;;;22.60;99.90;;;;;;5055686;28;20112;-68
2021/07/25 08:17:23;;;;;;;5.78;4.68;;;22.70;99.90;;;;;;5054795;28;20496;-69
2021/07/25 08:19:49;;;;;;;5.05;4.28;;;22.70;99.90;;;;;;5056578;28;20029;-68
2021/07/25 08:22:14;;;;;;;6.57;4.55;;;22.80;99.90;;;;;;5052643;28;20033;-68
2021/07/25 08:24:40;;;;;;;7.88;4.05;;;22.90;99.90;;;;;;5051357;28;20032;-68
2021/07/25 08:27:07;;;;;;;8.20;4.05;;;22.90;99.90;;;;;;5052509;28;20115;-68
2021/07/25 08:29:33;;;;;;;7.68;4.57;;;22.90;99.90;;;;;;5050414;28;20028;-69
2021/07/25 08:31:59;;;;;;;6.20;4.07;;;22.90;99.90;;;;;;5053034;28;20485;-68
2021/07/25 08:34:25;;;;;;;7.00;4.45;;;23.00;99.90;;;;;;5051637;28;20017;-69
2021/07/25 08:36:51;;;;;;;6.95;4.05;;;23.10;99.90;;;;;;5046937;28;20502;-68
2021/07/25 08:39:17;;;;;;;7.07;3.67;;;23.20;99.90;;;;;;5050117;28;20052;-68
2021/07/25 08:42:01;;;;;;;5.60;3.67;;;23.20;99.90;;;;;;5053915;28;20060;-68
2021/07/25 08:44:38;;;;;;;4.60;3.92;;;23.30;99.90;;;;;;5052120;28;20017;-69
2021/07/25 08:47:10;;;;;;;7.18;3.60;;;23.40;99.90;;;;;;5048655;28;20044;-68
2021/07/25 08:49:42;;;;;;;7.13;3.80;;;23.50;99.90;;;;;;5045080;28;20745;-68
2021/07/25 08:52:15;;;;;;;6.43;3.85;;;23.60;99.90;;;;;;5050356;28;20051;-68
2021/07/25 08:54:42;;;;;;;6.88;3.50;;;23.70;99.90;;;;;;5043346;28;20068;-68
2021/07/25 08:57:13;;;;;;;5.45;3.67;;;23.70;99.90;;;;;;5045922;28;20442;-69
2021/07/25 08:59:42;;;;;;;4.13;3.47;;;23.80;99.90;;;;;;5053265;28;20493;-69
2021/07/25 09:02:23;;;;;;;7.82;3.92;;;23.90;99.90;;;;;;5054525;28;20069;-68
2021/07/25 09:04:50;;;;;;;4.85;3.40;;;23.90;99.90;;;;;;5048502;28;20505;-68
2021/07/25 09:07:18;;;;;;;6.40;3.67;;;23.80;99.90;;;;;;5050897;28;20074;-68
2021/07/25 09:09:46;;;;;;;3.53;3.17;;;23.90;99.90;;;;;;5051376;28;20033;-68
2021/07/25 09:12:14;;;;;;;5.32;3.00;;;24.10;99.90;;;;;;5050294;28;20085;-69
2021/07/25 09:14:52;;;;;;;3.38;3.08;;;24.20;99.90;;;;;;5051988;28;20029;-69
2021/07/25 09:17:19;;;;;;;7.22;2.80;;;24.40;99.90;;;;;;5050251;28;20092;-69
2021/07/25 09:20:09;;;;;;;4.35;3.05;;;24.50;99.90;;;;;;5055181;28;20112;-70
2021/07/25 09:22:36;;;;;;;4.30;3.25;;;24.50;99.90;;;;;;5048444;28;20103;-69
2021/07/25 09:25:03;;;;;;;4.18;3.20;;;24.50;99.90;;;;;;5054197;28;20087;-69
2021/07/25 09:27:28;;;;;;;5.38;4.30;;;24.70;99.90;;;;;;5056246;28;20017;-70
2021/07/25 09:29:54;;;;;;;4.90;3.50;;;24.80;99.90;;;;;;5055348;28;20045;-69
2021/07/25 09:32:21;;;;;;;5.43;3.47;;;25.10;99.90;;;;;;5048111;28;20013;-69
2021/07/25 09:34:49;;;;;;;6.70;3.13;;;25.20;99.90;;;;;;5052101;28;20693;-69
2021/07/25 09:37:22;;;;;;;8.05;3.65;;;25.40;99.90;;;;;;5048521;28;20029;-69
2021/07/25 09:39:55;;;;;;;6.38;3.45;;;25.20;99.90;;;;;;5052673;28;20052;-69
2021/07/25 09:42:29;;;;;;;6.38;3.15;;;25.00;99.90;;;;;;5052655;28;20021;-69
2021/07/25 09:44:57;;;;;;;7.28;2.95;;;24.90;99.90;;;;;;5048765;28;20045;-69
2021/07/25 09:47:37;;;;;;;4.47;3.17;;;25.10;99.90;;;;;;5051864;28;20071;-68
2021/07/25 09:50:07;;;;;;;5.03;3.50;;;25.20;99.90;;;;;;5049829;28;20025;-69
2021/07/25 09:52:34;;;;;;;7.82;3.42;;;25.40;99.90;;;;;;5048488;28;20037;-69
2021/07/25 09:55:01;;;;;;;8.50;3.63;;;25.50;99.90;;;;;;5047316;28;20035;-69
2021/07/25 09:57:28;;;;;;;6.22;2.63;;;25.70;99.90;;;;;;5053596;28;20017;-69
2021/07/25 09:59:56;;;;;;;3.20;2.58;;;25.60;99.90;;;;;;5053139;28;20017;-69
2021/07/25 10:02:43;;;;;;;3.33;2.63;;;25.70;99.90;;;;;;5053204;28;20032;-69
2021/07/25 10:05:16;;;;;;;6.40;3.08;;;26.00;99.90;;;;;;5050620;28;20087;-69
2021/07/25 10:07:43;;;;;;;7.57;2.92;;;26.10;99.90;;;;;;5051799;28;20045;-69
2021/07/25 10:10:11;;;;;;;4.15;2.35;;;26.30;99.90;;;;;;5050181;28;20595;-69
2021/07/25 10:12:39;;;;;;;5.78;2.83;;;26.40;99.90;;;;;;5051474;28;20044;-69
2021/07/25 10:15:10;;;;;;;4.57;2.65;;;26.40;99.90;;;;;;5052179;28;20028;-69
2021/07/25 10:17:38;;;;;;;7.25;2.17;;;26.50;99.90;;;;;;5051691;28;20021;-69
2021/07/25 10:20:07;;;;;;;3.38;2.28;;;26.40;99.90;;;;;;5050182;28;20428;-70
2021/07/25 10:22:34;;;;;;;7.18;3.10;;;26.50;99.90;;;;;;5049993;28;20427;-69
2021/07/25 10:25:02;;;;;;;5.72;2.55;;;26.50;99.90;;;;;;5059633;28;20024;-70
2021/07/25 10:27:31;;;;;;;2.75;2.45;;;26.40;99.90;;;;;;5056350;28;20470;-69
2021/07/25 10:30:02;;;;;;;3.90;2.03;;;26.40;99.90;;;;;;5054483;28;20436;-69
2021/07/25 10:32:29;;;;;;;4.18;2.47;;;26.40;99.90;;;;;;5054204;28;20028;-70
2021/07/25 10:34:56;;;;;;;5.60;2.70;;;26.70;99.90;;;;;;5063318;28;20143;-70
2021/07/25 10:37:23;;;;;;;4.47;2.53;;;26.90;99.90;;;;;;5050102;28;20052;-69
2021/07/25 10:39:51;;;;;;;4.72;2.83;;;27.00;99.90;;;;;;5048432;28;20044;-69
2021/07/25 10:42:22;;;;;;;5.97;2.08;;;27.10;99.90;;;;;;5052067;28;20029;-69
2021/07/25 10:44:48;;;;;;;5.40;2.00;;;27.20;99.90;;;;;;5044164;28;20029;-70
2021/07/25 10:47:28;;;;;;;2.67;2.25;;;27.40;99.90;;;;;;5053937;28;20017;-69
2021/07/25 10:50:20;;;;;;;2.10;1.80;;;27.40;99.90;;;;;;5048091;28;20056;-69
2021/07/25 10:52:55;;;;;;;5.57;2.40;;;27.30;99.90;;;;;;5055184;28;20454;-69
2021/07/25 10:55:38;;;;;;;5.35;2.20;;;27.10;99.90;;;;;;5051372;28;20539;-69
2021/07/25 10:58:11;;;;;;;3.08;2.35;;;26.90;99.90;;;;;;5055171;28;20035;-69
2021/07/25 11:00:45;;;;;;;2.80;2.08;;;26.80;99.90;;;;;;5061957;28;20025;-69
2021/07/25 11:03:33;;;;;;;3.50;2.42;;;26.70;99.90;;;;;;5046705;28;20087;-69
2021/07/25 11:06:07;;;;;;;3.97;2.33;;;26.50;99.90;;;;;;5056567;28;20039;-69
2021/07/25 11:08:34;;;;;;;4.07;2.45;;;26.40;99.90;;;;;;5045829;28;20028;-69
2021/07/25 11:11:00;;;;;;;5.60;2.67;;;26.40;99.90;;;;;;5051102;28;20450;-69
2021/07/25 11:13:38;;;;;;;7.30;2.72;;;26.40;99.90;;;;;;5054667;28;20078;-69
2021/07/25 11:16:32;;;;;;;5.43;3.05;;;26.30;99.90;;;;;;5043555;28;20052;-69
2021/07/25 11:19:13;;;;;;;6.05;2.33;;;26.10;99.90;;;;;;5044843;28;20029;-70
2021/07/25 11:21:45;;;;;;;7.38;2.88;;;26.00;99.90;;;;;;5047082;28;20033;-69
2021/07/25 11:24:19;;;;;;;3.92;2.38;;;25.90;99.90;;;;;;5050654;28;20056;-68
2021/07/25 11:26:46;;;;;;;4.63;2.50;;;25.70;99.90;;;;;;5051120;28;20057;-69
2021/07/25 11:29:32;;;;;;;8.38;2.75;;;25.50;99.90;;;;;;5050061;28;20028;-69
2021/07/25 11:31:57;;;;;;;5.13;2.92;;;25.40;99.90;;;;;;5052260;28;20035;-69
2021/07/25 11:34:25;;;;;;;6.55;2.75;;;25.20;99.90;;;;;;5051969;28;20025;-70
2021/07/25 11:36:54;;;;;;;7.75;3.95;;;25.20;99.90;;;;;;5053847;28;20017;-69
2021/07/25 11:39:19;;;;;;;5.15;3.25;;;25.20;99.90;;;;;;5057359;28;20054;-69
2021/07/25 11:41:46;;;;;;;5.47;3.10;;;25.10;99.90;;;;;;5054246;28;20496;-69
2021/07/25 11:44:13;;;;;;;3.20;2.90;;;25.00;99.90;;;;;;5058184;28;20253;-69
2021/07/25 11:46:42;;;;;;;4.47;2.97;;;25.00;99.90;;;;;;5054670;28;20048;-69
2021/07/25 11:49:12;;;;;;;3.78;2.22;;;25.20;99.90;;;;;;5053418;28;20125;-69
2021/07/25 11:51:48;;;;;;;3.20;2.08;;;25.10;99.90;;;;;;5057114;28;20031;-69
2021/07/25 11:54:19;;;;;;;4.85;2.10;;;25.20;99.90;;;;;;5052475;28;20029;-69
2021/07/25 11:57:07;;;;;;;3.03;1.90;;;25.30;99.90;;;;;;5047430;28;20120;-68
2021/07/25 11:59:35;;;;;;;5.45;2.38;;;25.90;99.90;;;;;;5046176;28;20033;-68
2021/07/25 12:02:02;;;;;;;3.05;2.13;;;26.30;99.90;;;;;;5055424;28;20029;-68
2021/07/25 12:04:31;;;;;;;4.57;2.47;;;26.40;99.90;;;;;;5046925;28;20180;-68
2021/07/25 12:07:12;;;;;;;2.33;1.90;;;26.60;99.90;;;;;;5051575;28;20021;-68
2021/07/25 12:09:41;;;;;;;2.63;1.70;;;26.70;99.90;;;;;;5064062;28;20037;-68
2021/07/25 12:12:10;;;;;;;2.35;1.50;;;26.80;99.90;;;;;;5052620;28;20063;-68
2021/07/25 12:14:45;;;;;;;4.22;1.73;;;26.80;99.90;;;;;;5048733;28;20027;-68
2021/07/25 12:17:11;;;;;;;3.38;1.60;;;27.00;99.90;;;;;;5057751;28;20119;-68
2021/07/25 12:19:41;;;;;;;1.73;1.52;;;27.00;99.90;;;;;;5056066;28;20438;-68
2021/07/25 12:22:13;;;;;;;2.88;1.50;;;26.90;99.90;;;;;;5061904;28;20127;-68
2021/07/25 12:24:47;;;;;;;2.88;1.63;;;27.00;99.90;;;;;;5039899;28;20385;-68
2021/07/25 12:27:29;;;;;;;3.45;1.42;;;27.00;99.90;;;;;;5054664;28;20025;-68
2021/07/25 12:30:15;;;;;;;2.80;1.60;;;26.90;99.90;;;;;;5055631;28;20032;-68
2021/07/25 12:32:42;;;;;;;3.85;1.65;;;27.10;99.90;;;;;;5059370;28;20055;-68
2021/07/25 12:35:13;;;;;;;2.05;1.70;;;26.80;99.90;;;;;;5065490;28;20036;-68
2021/07/25 12:38:08;;;;;;;3.30;1.38;;;26.60;99.90;;;;;;5041142;28;20029;-68
2021/07/25 12:40:46;;;;;;;2.22;1.65;;;26.50;99.90;;;;;;5054845;28;20041;-68
2021/07/25 12:43:20;;;;;;;4.95;1.63;;;26.80;99.90;;;;;;5057257;28;20021;-67
2021/07/25 12:45:47;;;;;;;3.22;1.55;;;27.30;99.90;;;;;;5050368;28;20029;-69